createdAt,value
2022-10-02T00:01:17.063Z,2.00
2022-10-02T00:04:11.322Z,2.10
2022-10-02T00:07:07.010Z,2.42
2022-10-02T00:10:01.897Z,2.47
2022-10-02T00:12:56.481Z,2.17
2022-10-02T00:15:45.497Z,2.08
2022-10-02T00:18:38.175Z,2.03
2022-10-02T00:21:42.265Z,1.92
2022-10-02T00:24:40.353Z,1.88
2022-10-02T00:27:55.451Z,1.83
2022-10-02T00:30:59.827Z,1.80
2022-10-02T00:34:06.970Z,2.30
2022-10-02T00:37:09.396Z,1.67
2022-10-02T00:40:27.380Z,2.33
2022-10-02T00:43:34.367Z,1.83
2022-10-02T00:46:46.375Z,2.03
2022-10-02T00:49:55.006Z,1.75
2022-10-02T00:53:09.178Z,2.10
2022-10-02T00:56:16.513Z,1.80
2022-10-02T00:59:39.596Z,1.70
2022-10-02T01:03:11.974Z,2.28
2022-10-02T01:06:01.147Z,1.90
2022-10-02T01:08:48.944Z,1.92
2022-10-02T01:11:39.357Z,2.45
2022-10-02T01:14:34.749Z,2.05
2022-10-02T01:17:25.594Z,2.08
2022-10-02T01:20:19.171Z,1.55
2022-10-02T01:23:21.854Z,1.83
2022-10-02T01:26:10.928Z,1.80
2022-10-02T01:28:58.562Z,1.67
2022-10-02T01:31:57.720Z,1.67
2022-10-02T01:34:50.735Z,1.70
2022-10-02T01:40:41.833Z,2.00
2022-10-02T01:43:37.457Z,1.65
2022-10-02T01:46:39.098Z,2.38
2022-10-02T01:50:03.838Z,1.75
2022-10-02T01:53:01.991Z,1.95
2022-10-02T01:56:04.414Z,2.10
2022-10-02T01:59:06.277Z,1.80
2022-10-02T02:02:11.792Z,2.40
2022-10-02T02:05:10.840Z,2.50
2022-10-02T02:08:09.197Z,2.10
2022-10-02T02:11:14.532Z,2.00
2022-10-02T02:14:08.384Z,1.90
2022-10-02T02:17:08.898Z,1.75
2022-10-02T02:20:08.310Z,1.90
2022-10-02T02:23:12.114Z,2.20
2022-10-02T02:26:07.778Z,2.17
2022-10-02T02:29:07.154Z,2.00
2022-10-02T02:32:11.338Z,2.42
2022-10-02T02:35:45.844Z,2.40
2022-10-02T02:41:43.782Z,2.13
2022-10-02T02:44:40.876Z,1.80
2022-10-02T02:47:37.029Z,2.35
2022-10-02T02:50:33.328Z,2.38
2022-10-02T02:53:31.832Z,2.05
2022-10-02T02:56:24.256Z,2.20
2022-10-02T02:59:16.633Z,2.50
2022-10-02T03:02:04.422Z,2.35
2022-10-02T03:05:03.961Z,2.00
2022-10-02T03:07:57.359Z,2.00
2022-10-02T03:11:03.354Z,1.90
2022-10-02T03:14:11.917Z,2.20
2022-10-02T03:17:17.711Z,2.33
2022-10-02T03:20:19.707Z,2.15
2022-10-02T03:23:24.048Z,2.00
2022-10-02T03:26:32.628Z,2.35
2022-10-02T03:29:59.313Z,2.58
2022-10-02T03:33:01.441Z,2.38
2022-10-02T03:35:57.699Z,2.20
2022-10-02T03:39:12.619Z,2.30
2022-10-02T03:42:03.616Z,2.28
2022-10-02T03:44:54.478Z,1.85
2022-10-02T03:47:47.219Z,2.00
2022-10-02T03:50:43.033Z,2.08
2022-10-02T03:53:39.286Z,1.92
2022-10-02T03:56:40.538Z,2.03
2022-10-02T03:59:46.677Z,1.90
2022-10-02T04:02:54.037Z,1.90
2022-10-02T04:05:49.227Z,2.03
2022-10-02T04:09:04.308Z,2.40
2022-10-02T04:12:03.396Z,2.10
2022-10-02T04:14:58.492Z,1.90
2022-10-02T04:18:02.126Z,2.28
2022-10-02T04:21:13.845Z,1.98
2022-10-02T04:24:24.325Z,1.75
2022-10-02T04:27:35.334Z,1.83
2022-10-02T04:30:23.970Z,2.08
2022-10-02T04:33:23.667Z,1.90
2022-10-02T04:36:38.386Z,1.80
2022-10-02T04:39:58.239Z,1.77
2022-10-02T04:43:10.549Z,1.65
2022-10-02T04:46:21.432Z,2.27
2022-10-02T04:49:43.617Z,2.10
2022-10-02T04:53:12.236Z,1.67
2022-10-02T04:56:45.368Z,1.98
2022-10-02T05:00:01.505Z,1.90
2022-10-02T05:03:44.999Z,2.33
2022-10-02T05:12:11.741Z,1.95
2022-10-02T05:15:40.127Z,2.17
2022-10-02T05:19:11.096Z,1.60
2022-10-02T05:22:47.796Z,2.25
2022-10-02T05:26:24.673Z,2.03
2022-10-02T05:29:41.611Z,2.00
2022-10-02T05:33:16.324Z,1.92
2022-10-02T05:36:53.244Z,1.88
2022-10-02T05:39:53.965Z,2.10
2022-10-02T05:42:58.010Z,1.73
2022-10-02T05:46:17.577Z,1.95
2022-10-02T05:49:20.128Z,1.95
2022-10-02T05:52:17.407Z,2.00
2022-10-02T05:55:20.204Z,2.28
2022-10-02T05:58:17.626Z,2.45
2022-10-02T06:01:21.244Z,2.30
2022-10-02T06:04:41.313Z,3.17
2022-10-02T06:07:32.677Z,2.30
2022-10-02T06:10:31.735Z,2.45
2022-10-02T06:13:33.655Z,2.22
2022-10-02T06:16:29.464Z,2.08
2022-10-02T06:19:28.117Z,2.08
2022-10-02T06:22:20.921Z,1.77
2022-10-02T06:28:16.674Z,2.00
2022-10-02T06:31:13.875Z,1.95
2022-10-02T06:34:02.896Z,2.33
2022-10-02T06:37:20.810Z,2.40
2022-10-02T06:40:51.806Z,2.42
2022-10-02T06:44:09.796Z,2.40
2022-10-02T06:47:29.335Z,2.28
2022-10-02T06:50:44.314Z,2.30
2022-10-02T06:53:55.904Z,2.15
2022-10-02T06:57:05.751Z,2.50
2022-10-02T07:00:12.518Z,2.47
2022-10-02T07:03:35.551Z,2.00
2022-10-02T07:06:45.734Z,1.95
2022-10-02T07:10:02.976Z,2.40
2022-10-02T07:13:21.411Z,1.92
2022-10-02T07:16:34.887Z,2.85
2022-10-02T07:20:02.513Z,2.60
2022-10-02T07:23:18.934Z,2.00
2022-10-02T07:26:28.682Z,2.45
2022-10-02T07:29:42.363Z,2.08
2022-10-02T07:32:50.497Z,2.28
2022-10-02T07:36:09.513Z,2.47
2022-10-02T07:39:34.717Z,2.20
2022-10-02T07:42:58.131Z,2.15
2022-10-02T07:45:59.218Z,2.25
2022-10-02T07:49:19.145Z,1.90
2022-10-02T07:53:16.502Z,2.10
2022-10-02T08:04:17.463Z,1.83
2022-10-02T08:07:09.433Z,2.30
2022-10-02T08:10:11.949Z,2.33
2022-10-02T08:13:16.376Z,2.22
2022-10-02T08:16:07.762Z,3.22
2022-10-02T08:19:01.874Z,4.63
2022-10-02T08:21:57.246Z,3.47
2022-10-02T08:24:53.272Z,2.97
2022-10-02T08:27:54.857Z,2.55
2022-10-02T08:30:44.062Z,1.98
2022-10-02T08:33:33.480Z,2.25
2022-10-02T08:37:08.807Z,2.25
2022-10-02T08:40:51.546Z,2.28
2022-10-02T08:44:39.892Z,2.10
2022-10-02T08:48:06.627Z,2.22
2022-10-02T08:52:00.114Z,2.60
2022-10-02T08:55:32.720Z,2.80
2022-10-02T08:59:13.530Z,3.78
2022-10-02T09:02:58.136Z,3.05
2022-10-02T09:06:38.810Z,2.65
2022-10-02T09:10:20.767Z,2.20
2022-10-02T09:14:10.094Z,2.33
2022-10-02T09:17:25.068Z,2.28
2022-10-02T09:21:12.063Z,2.70
2022-10-02T09:24:55.381Z,2.40
2022-10-02T09:28:47.153Z,2.20
2022-10-02T09:32:18.777Z,2.47
2022-10-02T09:35:36.955Z,2.60
2022-10-02T09:39:16.510Z,2.83
2022-10-02T09:42:45.975Z,3.25
2022-10-02T09:46:35.792Z,2.50
2022-10-02T09:50:18.650Z,2.35
2022-10-02T09:54:22.216Z,2.40
2022-10-02T09:57:55.714Z,2.37
2022-10-02T10:05:04.388Z,2.38
2022-10-02T10:08:34.783Z,2.38
2022-10-02T10:12:32.824Z,2.25
2022-10-02T10:16:25.769Z,2.85
2022-10-02T10:20:00.818Z,2.58
2022-10-02T10:23:43.307Z,2.45
2022-10-02T10:27:24.332Z,2.53
2022-10-02T10:31:11.131Z,3.38
2022-10-02T10:34:50.929Z,3.03
2022-10-02T10:38:35.357Z,2.58
2022-10-02T10:42:37.704Z,2.45
2022-10-02T10:46:06.250Z,1.90
2022-10-02T10:50:03.517Z,1.98
2022-10-02T10:53:31.781Z,2.30
2022-10-02T10:56:38.237Z,2.20
2022-10-02T11:00:19.523Z,2.92
2022-10-02T11:03:58.514Z,2.55
2022-10-02T11:07:23.067Z,2.78
2022-10-02T11:10:34.829Z,2.47
2022-10-02T11:13:57.919Z,2.72
2022-10-02T11:17:42.584Z,2.47
2022-10-02T11:21:07.062Z,2.60
2022-10-02T11:24:32.702Z,2.90
2022-10-02T11:27:48.406Z,2.40
2022-10-02T11:30:53.672Z,2.97
2022-10-02T11:34:20.047Z,3.40
2022-10-02T11:37:31.799Z,2.40
2022-10-02T11:40:47.595Z,2.03
2022-10-02T11:44:01.243Z,1.77
2022-10-02T11:47:28.293Z,2.35
2022-10-02T11:50:57.209Z,1.92
2022-10-02T11:54:33.943Z,2.10
2022-10-02T11:57:50.934Z,1.88
2022-10-02T12:01:19.985Z,1.95
2022-10-02T12:04:44.666Z,1.60
2022-10-02T12:07:52.144Z,1.38
2022-10-02T12:10:54.260Z,1.52
2022-10-02T12:14:19.455Z,1.50
2022-10-02T12:17:33.705Z,1.52
2022-10-02T12:20:57.256Z,1.70
2022-10-02T12:24:20.075Z,1.70
2022-10-02T12:27:24.537Z,1.70
2022-10-02T12:30:22.323Z,1.50
2022-10-02T12:33:37.672Z,1.85
2022-10-02T12:36:47.387Z,1.55
2022-10-02T12:39:54.837Z,1.30
2022-10-02T12:43:41.973Z,1.50
2022-10-02T12:47:21.079Z,1.30
2022-10-02T12:50:24.347Z,1.45
2022-10-02T12:53:55.210Z,1.20
2022-10-02T12:57:39.245Z,2.63
2022-10-02T13:00:50.532Z,1.42
2022-10-02T13:04:27.210Z,2.60
2022-10-02T13:07:58.926Z,1.80
2022-10-02T13:10:58.093Z,1.80
2022-10-02T13:14:27.782Z,2.00
2022-10-02T13:17:35.938Z,2.30
2022-10-02T13:20:41.160Z,2.05
2022-10-02T13:23:41.972Z,2.10
2022-10-02T13:26:49.038Z,10.80
2022-10-02T13:29:52.364Z,34.75
2022-10-02T13:36:09.334Z,11.32
2022-10-02T13:39:23.379Z,9.13
2022-10-02T13:42:37.162Z,5.88
2022-10-02T13:45:35.499Z,4.95
2022-10-02T13:48:42.800Z,3.30
2022-10-02T13:51:46.156Z,4.05
2022-10-02T13:54:57.661Z,3.47
2022-10-02T13:58:36.460Z,3.03
2022-10-02T14:01:42.478Z,2.38
2022-10-02T14:05:02.229Z,2.72
2022-10-02T14:08:14.317Z,1.70
2022-10-02T14:11:20.054Z,2.25
2022-10-02T14:14:31.870Z,2.15
2022-10-02T14:17:35.859Z,1.80
2022-10-02T14:20:40.376Z,1.77
2022-10-02T14:23:55.861Z,2.40
2022-10-02T14:27:01.983Z,4.93
2022-10-02T14:30:04.314Z,2.13
2022-10-02T14:33:05.639Z,2.37
2022-10-02T14:36:07.208Z,2.60
2022-10-02T14:39:22.092Z,3.17
2022-10-02T14:42:41.324Z,2.63
2022-10-02T14:46:21.830Z,2.65
2022-10-02T14:50:03.830Z,1.92
2022-10-02T14:53:18.317Z,2.15
2022-10-02T14:56:46.997Z,2.22
2022-10-02T15:00:05.366Z,2.45
2022-10-02T15:03:33.707Z,2.30
2022-10-02T15:06:57.447Z,1.70
2022-10-02T15:10:15.838Z,1.70
2022-10-02T15:13:11.423Z,1.90
2022-10-02T15:16:38.396Z,2.28
2022-10-02T15:19:36.715Z,1.73
2022-10-02T15:22:35.806Z,1.80
2022-10-02T15:26:02.269Z,1.55
2022-10-02T15:29:08.856Z,2.00
2022-10-02T15:32:36.518Z,2.05
2022-10-02T15:35:55.328Z,1.90
2022-10-02T15:39:23.647Z,1.83
2022-10-02T15:42:36.098Z,2.13
2022-10-02T15:46:12.196Z,3.00
2022-10-02T15:49:23.874Z,2.05
2022-10-02T15:52:37.450Z,2.00
2022-10-02T15:55:39.030Z,1.77
2022-10-02T15:58:58.308Z,2.65
2022-10-02T16:02:03.967Z,1.90
2022-10-02T16:05:09.346Z,3.03
2022-10-02T16:08:39.881Z,2.28
2022-10-02T16:11:59.545Z,1.67
2022-10-02T16:15:08.827Z,1.90
2022-10-02T16:18:41.989Z,2.47
2022-10-02T16:22:17.800Z,2.20
2022-10-02T16:25:33.900Z,2.63
2022-10-02T16:28:49.908Z,3.17
2022-10-02T16:32:01.067Z,3.75
2022-10-02T16:35:17.700Z,1.95
2022-10-02T16:38:18.977Z,2.22
2022-10-02T16:41:32.150Z,3.63
2022-10-02T16:44:50.684Z,3.47
2022-10-02T16:47:50.326Z,11.77
2022-10-02T16:51:11.497Z,7.50
2022-10-02T16:54:15.564Z,11.55
2022-10-02T16:57:20.444Z,5.30
2022-10-02T17:00:17.152Z,4.80
2022-10-02T17:03:21.697Z,4.03
2022-10-02T17:06:26.693Z,3.22
2022-10-02T17:09:28.664Z,2.85
2022-10-02T17:12:26.528Z,2.88
2022-10-02T17:15:23.937Z,3.17
2022-10-02T17:18:28.006Z,3.10
2022-10-02T17:21:25.919Z,2.75
2022-10-02T17:24:36.524Z,3.08
2022-10-02T17:27:45.253Z,3.15
2022-10-02T17:30:58.058Z,2.90
2022-10-02T17:34:02.448Z,3.30
2022-10-02T17:37:03.962Z,2.90
2022-10-02T17:40:13.921Z,2.50
2022-10-02T17:43:14.869Z,2.35
2022-10-02T17:46:49.359Z,2.45
2022-10-02T17:49:57.777Z,2.33
2022-10-02T17:53:06.895Z,2.20
2022-10-02T17:56:34.852Z,2.30
2022-10-02T17:59:53.323Z,2.42
2022-10-02T18:03:32.252Z,2.00
2022-10-02T18:06:41.906Z,2.63
2022-10-02T18:09:53.827Z,2.53
2022-10-02T18:13:14.801Z,2.10
2022-10-02T18:16:28.728Z,2.30
2022-10-02T18:19:32.353Z,2.20
2022-10-02T18:23:03.691Z,2.05
2022-10-02T18:26:19.478Z,2.13
2022-10-02T18:29:37.028Z,2.03
2022-10-02T18:32:50.097Z,2.47
2022-10-02T18:38:59.558Z,2.40
2022-10-02T18:42:41.296Z,2.20
2022-10-02T18:45:45.401Z,2.33
2022-10-02T18:48:56.674Z,2.30
2022-10-02T18:52:24.690Z,2.25
2022-10-02T18:55:42.950Z,2.17
2022-10-02T18:58:52.630Z,2.38
2022-10-02T19:02:02.086Z,2.40
2022-10-02T19:05:17.152Z,2.40
2022-10-02T19:08:22.682Z,2.33
2022-10-02T19:11:19.745Z,2.38
2022-10-02T19:14:16.458Z,2.10
2022-10-02T19:17:09.042Z,2.28
2022-10-02T19:19:58.928Z,2.65
2022-10-02T19:22:47.674Z,2.67
2022-10-02T19:25:36.403Z,2.75
2022-10-02T19:28:30.555Z,2.75
2022-10-02T19:31:26.901Z,2.80
2022-10-02T19:34:21.132Z,2.63
2022-10-02T19:37:12.906Z,2.83
2022-10-02T19:40:04.409Z,2.92
2022-10-02T19:43:01.707Z,2.60
2022-10-02T19:45:57.209Z,2.42
2022-10-02T19:48:46.057Z,3.10
2022-10-02T19:51:45.344Z,2.80
2022-10-02T19:54:40.354Z,2.65
2022-10-02T19:57:41.773Z,2.92
2022-10-02T20:00:32.189Z,2.65
2022-10-02T20:03:27.051Z,2.90
2022-10-02T20:06:21.123Z,2.72
2022-10-02T20:09:20.602Z,3.20
2022-10-02T20:12:16.727Z,3.03
2022-10-02T20:15:15.570Z,3.33
2022-10-02T20:18:02.366Z,3.05
2022-10-02T20:20:57.520Z,2.97
2022-10-02T20:23:57.706Z,3.60
2022-10-02T20:26:48.312Z,3.40
2022-10-02T20:29:46.941Z,3.80
2022-10-02T20:32:42.284Z,4.45
2022-10-02T20:35:37.945Z,3.90
2022-10-02T20:38:33.748Z,4.00
2022-10-02T20:41:27.693Z,4.35
2022-10-02T20:44:15.451Z,4.13
2022-10-02T20:47:59.539Z,4.13
2022-10-02T20:51:06.669Z,4.07
2022-10-02T20:54:32.979Z,4.47
2022-10-02T20:58:01.812Z,4.43
2022-10-02T21:01:16.863Z,4.60
2022-10-02T21:05:02.857Z,4.40
2022-10-02T21:08:40.379Z,4.28
2022-10-02T21:12:10.787Z,4.03
2022-10-02T21:15:29.311Z,4.53
2022-10-02T21:18:58.124Z,4.20
2022-10-02T21:22:37.625Z,4.25
2022-10-02T21:26:26.812Z,5.43
2022-10-02T21:29:48.492Z,4.70
2022-10-02T21:32:56.470Z,4.28
2022-10-02T21:35:56.282Z,4.53
2022-10-02T21:39:32.648Z,5.13
2022-10-02T21:43:17.875Z,4.95
2022-10-02T21:47:04.240Z,4.60
2022-10-02T21:50:50.138Z,4.72
2022-10-02T21:54:43.913Z,5.20
2022-10-02T21:58:48.981Z,4.57
2022-10-02T22:02:20.290Z,4.63
2022-10-02T22:05:53.349Z,4.20
2022-10-02T22:09:12.593Z,5.03
2022-10-02T22:12:24.114Z,5.10
2022-10-02T22:15:22.285Z,5.82
2022-10-02T22:18:27.653Z,5.05
2022-10-02T22:21:52.106Z,5.65
2022-10-02T22:25:12.117Z,5.22
2022-10-02T22:28:20.213Z,5.30
2022-10-02T22:31:54.536Z,5.53
2022-10-02T22:34:58.816Z,5.57
2022-10-02T22:38:09.859Z,5.38
2022-10-02T22:41:08.237Z,5.25
2022-10-02T22:44:01.717Z,5.80
2022-10-02T22:46:57.793Z,5.60
2022-10-02T22:49:53.225Z,5.63
2022-10-02T22:52:52.249Z,5.10
2022-10-02T22:55:52.504Z,5.90
2022-10-02T22:58:48.773Z,5.05
2022-10-02T23:01:47.597Z,5.68
2022-10-02T23:04:44.940Z,5.35
2022-10-02T23:07:47.754Z,5.03
2022-10-02T23:10:46.916Z,5.38
2022-10-02T23:13:45.233Z,5.32
2022-10-02T23:16:41.080Z,5.75
2022-10-02T23:19:41.132Z,5.50
2022-10-02T23:22:34.621Z,5.95
2022-10-02T23:25:33.859Z,5.28
2022-10-02T23:28:29.490Z,5.30
2022-10-02T23:31:23.966Z,5.75
2022-10-02T23:34:24.404Z,6.88
2022-10-02T23:37:22.521Z,5.55
2022-10-02T23:40:46.727Z,5.63
2022-10-02T23:43:46.960Z,5.80
2022-10-02T23:47:01.544Z,6.45
2022-10-02T23:49:54.242Z,5.78
2022-10-02T23:53:12.687Z,5.72
2022-10-02T23:56:27.775Z,5.90
2022-10-02T23:59:40.115Z,6.63
